Blaine, Tennessee
Current Conditions -  °F | °C
As of 9:35 PM on Sunday 23 Nov 2014 (Local Time) from KMOR Reporting Station
Overcast Overcast  
Wind Chill: 55°   Ceiling: 7000
Heat Index: 55°   Visibility: 10mi
Dew Point: 52°   Wind: 10mph
Humidity: 88%   Direction: 200°SSW
Pressure: 29.58"   Gusts: NA
Location:  36.15°N, 83.7°W
Report Text: KMOR 240235Z AUTO 20009KT 10SM FEW060 OVC070 13/11 A2958 RMK
Loading
Personal Weather Stations






























Interactive Weather Map New forecast layout! Learn more

10-Day Weather Forecast

Advertisements
Track Severe Weather on mobile